sensor_id;sensor_type;location;lat;lon;timestamp;pressure;altitude;pressure_sealevel;temperature;humidity
70370;BME280;57790;51.356;-2.906;2023-03-19T00:02:34;101407.50;;;12.55;100.00
70370;BME280;57790;51.356;-2.906;2023-03-19T00:05:35;101409.66;;;12.51;100.00
70370;BME280;57790;51.356;-2.906;2023-03-19T00:08:35;101423.75;;;12.43;100.00
70370;BME280;57790;51.356;-2.906;2023-03-19T00:11:36;101425.44;;;12.44;100.00
70370;BME280;57790;51.356;-2.906;2023-03-19T00:14:37;101423.06;;;12.41;100.00
70370;BME280;57790;51.356;-2.906;2023-03-19T00:17:37;101433.34;;;12.36;100.00
70370;BME280;57790;51.356;-2.906;2023-03-19T00:20:38;101433.84;;;12.32;100.00
70370;BME280;57790;51.356;-2.906;2023-03-19T00:23:38;101433.16;;;12.30;100.00
70370;BME280;57790;51.356;-2.906;2023-03-19T00:26:39;101421.31;;;12.24;100.00
70370;BME280;57790;51.356;-2.906;2023-03-19T00:29:39;101434.44;;;12.26;100.00
70370;BME280;57790;51.356;-2.906;2023-03-19T00:32:40;101442.06;;;12.20;100.00
70370;BME280;57790;51.356;-2.906;2023-03-19T00:35:40;101452.69;;;12.20;100.00
70370;BME280;57790;51.356;-2.906;2023-03-19T00:38:42;101461.28;;;12.14;100.00
70370;BME280;57790;51.356;-2.906;2023-03-19T00:41:42;101474.19;;;12.09;100.00
70370;BME280;57790;51.356;-2.906;2023-03-19T00:44:49;101479.00;;;12.06;100.00
70370;BME280;57790;51.356;-2.906;2023-03-19T00:47:50;101474.81;;;12.03;100.00
70370;BME280;57790;51.356;-2.906;2023-03-19T00:50:50;101484.06;;;11.99;100.00
70370;BME280;57790;51.356;-2.906;2023-03-19T00:53:51;101493.19;;;11.97;100.00
70370;BME280;57790;51.356;-2.906;2023-03-19T00:56:53;101491.69;;;11.94;100.00
70370;BME280;57790;51.356;-2.906;2023-03-19T00:59:53;101491.84;;;11.93;100.00
70370;BME280;57790;51.356;-2.906;2023-03-19T01:02:53;101492.16;;;11.89;100.00
70370;BME280;57790;51.356;-2.906;2023-03-19T01:05:54;101492.31;;;11.88;100.00
70370;BME280;57790;51.356;-2.906;2023-03-19T01:08:54;101498.19;;;11.82;100.00
70370;BME280;57790;51.356;-2.906;2023-03-19T01:11:55;101509.25;;;11.77;100.00
70370;BME280;57790;51.356;-2.906;2023-03-19T01:14:56;101513.22;;;11.73;100.00
70370;BME280;57790;51.356;-2.906;2023-03-19T01:17:56;101523.00;;;11.73;100.00
70370;BME280;57790;51.356;-2.906;2023-03-19T01:20:57;101524.13;;;11.70;100.00
70370;BME280;57790;51.356;-2.906;2023-03-19T01:23:58;101530.88;;;11.65;100.00
70370;BME280;57790;51.356;-2.906;2023-03-19T01:26:58;101529.88;;;11.66;100.00
70370;BME280;57790;51.356;-2.906;2023-03-19T01:29:59;101527.69;;;11.61;100.00
70370;BME280;57790;51.356;-2.906;2023-03-19T01:32:59;101518.47;;;11.55;100.00
70370;BME280;57790;51.356;-2.906;2023-03-19T01:36:01;101517.94;;;11.52;100.00
70370;BME280;57790;51.356;-2.906;2023-03-19T01:39:04;101519.78;;;11.51;100.00
70370;BME280;57790;51.356;-2.906;2023-03-19T01:42:05;101529.03;;;11.47;100.00
70370;BME280;57790;51.356;-2.906;2023-03-19T01:45:29;101525.38;;;11.48;100.00
70370;BME280;57790;51.356;-2.906;2023-03-19T01:51:37;101524.56;;;11.48;100.00
70370;BME280;57790;51.356;-2.906;2023-03-19T01:54:40;101524.03;;;11.44;100.00
70370;BME280;57790;51.356;-2.906;2023-03-19T01:57:40;101520.97;;;11.39;100.00
70370;BME280;57790;51.356;-2.906;2023-03-19T02:00:41;101523.63;;;11.39;100.00
70370;BME280;57790;51.356;-2.906;2023-03-19T02:03:42;101528.53;;;11.34;100.00
70370;BME280;57790;51.356;-2.906;2023-03-19T02:06:43;101530.38;;;11.33;100.00
70370;BME280;57790;51.356;-2.906;2023-03-19T02:09:44;101526.47;;;11.28;100.00
70370;BME280;57790;51.356;-2.906;2023-03-19T02:12:45;101518.38;;;11.29;100.00
70370;BME280;57790;51.356;-2.906;2023-03-19T02:15:46;101506.22;;;11.27;100.00
70370;BME280;57790;51.356;-2.906;2023-03-19T02:18:46;101519.25;;;11.20;100.00
70370;BME280;57790;51.356;-2.906;2023-03-19T02:21:47;101514.94;;;11.19;100.00
70370;BME280;57790;51.356;-2.906;2023-03-19T02:25:10;101518.31;;;11.12;100.00
70370;BME280;57790;51.356;-2.906;2023-03-19T02:28:15;101509.13;;;11.06;100.00
70370;BME280;57790;51.356;-2.906;2023-03-19T02:31:16;101501.31;;;11.05;100.00
70370;BME280;57790;51.356;-2.906;2023-03-19T02:37:26;101516.41;;;11.04;100.00
70370;BME280;57790;51.356;-2.906;2023-03-19T02:40:35;101514.44;;;11.06;100.00
70370;BME280;57790;51.356;-2.906;2023-03-19T02:43:39;101513.31;;;10.99;100.00
70370;BME280;57790;51.356;-2.906;2023-03-19T02:46:40;101512.78;;;10.95;100.00
70370;BME280;57790;51.356;-2.906;2023-03-19T02:49:41;101525.06;;;10.96;100.00
70370;BME280;57790;51.356;-2.906;2023-03-19T02:52:41;101532.50;;;10.93;100.00
70370;BME280;57790;51.356;-2.906;2023-03-19T02:55:42;101528.31;;;10.90;100.00
70370;BME280;57790;51.356;-2.906;2023-03-19T02:58:43;101530.59;;;10.85;100.00
70370;BME280;57790;51.356;-2.906;2023-03-19T03:01:43;101536.16;;;10.82;100.00
70370;BME280;57790;51.356;-2.906;2023-03-19T03:04:43;101546.06;;;10.80;100.00
70370;BME280;57790;51.356;-2.906;2023-03-19T03:07:44;101546.38;;;10.77;100.00
70370;BME280;57790;51.356;-2.906;2023-03-19T03:10:45;101542.19;;;10.75;100.00
70370;BME280;57790;51.356;-2.906;2023-03-19T03:13:45;101543.03;;;10.75;100.00
70370;BME280;57790;51.356;-2.906;2023-03-19T03:16:46;101539.69;;;10.73;100.00
70370;BME280;57790;51.356;-2.906;2023-03-19T03:19:46;101542.59;;;10.70;100.00
70370;BME280;57790;51.356;-2.906;2023-03-19T03:22:47;101557.56;;;10.71;100.00
70370;BME280;57790;51.356;-2.906;2023-03-19T03:25:49;101569.25;;;10.68;100.00
70370;BME280;57790;51.356;-2.906;2023-03-19T03:28:50;101581.84;;;10.66;100.00
70370;BME280;57790;51.356;-2.906;2023-03-19T03:31:51;101592.19;;;10.60;100.00
70370;BME280;57790;51.356;-2.906;2023-03-19T03:34:51;101589.38;;;10.61;100.00
70370;BME280;57790;51.356;-2.906;2023-03-19T03:37:52;101581.88;;;10.57;100.00
70370;BME280;57790;51.356;-2.906;2023-03-19T03:40:52;101581.03;;;10.56;100.00
70370;BME280;57790;51.356;-2.906;2023-03-19T03:43:53;101584.66;;;10.46;100.00
70370;BME280;57790;51.356;-2.906;2023-03-19T03:46:53;101584.94;;;10.42;100.00
70370;BME280;57790;51.356;-2.906;2023-03-19T03:49:54;101592.31;;;10.49;100.00
70370;BME280;57790;51.356;-2.906;2023-03-19T03:52:54;101602.09;;;10.48;100.00
70370;BME280;57790;51.356;-2.906;2023-03-19T03:55:55;101611.88;;;10.48;100.00
70370;BME280;57790;51.356;-2.906;2023-03-19T03:58:56;101617.03;;;10.49;100.00
70370;BME280;57790;51.356;-2.906;2023-03-19T04:01:56;101619.81;;;10.48;100.00
70370;BME280;57790;51.356;-2.906;2023-03-19T04:04:57;101615.63;;;10.45;100.00
70370;BME280;57790;51.356;-2.906;2023-03-19T04:07:57;101615.63;;;10.45;100.00
70370;BME280;57790;51.356;-2.906;2023-03-19T04:10:58;101630.13;;;10.41;100.00
70370;BME280;57790;51.356;-2.906;2023-03-19T04:13:58;101629.28;;;10.40;100.00
70370;BME280;57790;51.356;-2.906;2023-03-19T04:16:59;101634.88;;;10.37;100.00
70370;BME280;57790;51.356;-2.906;2023-03-19T04:19:59;101634.19;;;10.35;100.00
70370;BME280;57790;51.356;-2.906;2023-03-19T04:23:00;101633.06;;;10.38;100.00
70370;BME280;57790;51.356;-2.906;2023-03-19T04:26:02;101639.34;;;10.37;100.00
70370;BME280;57790;51.356;-2.906;2023-03-19T04:29:03;101645.63;;;10.36;100.00
70370;BME280;57790;51.356;-2.906;2023-03-19T04:32:04;101646.44;;;10.36;100.00
70370;BME280;57790;51.356;-2.906;2023-03-19T04:35:05;101650.91;;;10.36;100.00
70370;BME280;57790;51.356;-2.906;2023-03-19T04:38:05;101653.72;;;10.34;100.00
70370;BME280;57790;51.356;-2.906;2023-03-19T04:41:06;101654.69;;;10.33;100.00
70370;BME280;57790;51.356;-2.906;2023-03-19T04:44:06;101663.34;;;10.35;100.00
70370;BME280;57790;51.356;-2.906;2023-03-19T04:47:07;101660.00;;;10.33;100.00
70370;BME280;57790;51.356;-2.906;2023-03-19T04:50:08;101663.63;;;10.32;100.00
70370;BME280;57790;51.356;-2.906;2023-03-19T04:53:08;101670.19;;;10.28;100.00
70370;BME280;57790;51.356;-2.906;2023-03-19T04:56:09;101664.75;;;10.30;100.00
70370;BME280;57790;51.356;-2.906;2023-03-19T04:59:10;101678.38;;;10.25;100.00
70370;BME280;57790;51.356;-2.906;2023-03-19T05:02:10;101687.31;;;10.24;100.00
70370;BME280;57790;51.356;-2.906;2023-03-19T05:05:11;101688.28;;;10.23;100.00
70370;BME280;57790;51.356;-2.906;2023-03-19T05:08:14;101693.97;;;10.19;100.00
70370;BME280;57790;51.356;-2.906;2023-03-19T05:11:15;101698.56;;;10.17;100.00
70370;BME280;57790;51.356;-2.906;2023-03-19T05:14:15;101697.59;;;10.18;100.00
70370;BME280;57790;51.356;-2.906;2023-03-19T05:17:16;101703.31;;;10.13;100.00
70370;BME280;57790;51.356;-2.906;2023-03-19T05:20:16;101704.25;;;10.12;100.00
70370;BME280;57790;51.356;-2.906;2023-03-19T05:23:17;101701.88;;;10.09;100.00
70370;BME280;57790;51.356;-2.906;2023-03-19T05:26:18;101712.91;;;10.04;100.00
70370;BME280;57790;51.356;-2.906;2023-03-19T05:29:18;101717.63;;;10.01;100.00
70370;BME280;57790;51.356;-2.906;2023-03-19T05:32:18;101721.81;;;10.03;100.00
70370;BME280;57790;51.356;-2.906;2023-03-19T05:35:20;101723.91;;;10.00;100.00
70370;BME280;57790;51.356;-2.906;2023-03-19T05:38:20;101720.66;;;9.96;100.00
70370;BME280;57790;51.356;-2.906;2023-03-19T05:41:21;101726.09;;;9.95;100.00
70370;BME280;57790;51.356;-2.906;2023-03-19T05:44:21;101733.34;;;9.93;100.00
70370;BME280;57790;51.356;-2.906;2023-03-19T05:47:22;101738.91;;;9.90;100.00
70370;BME280;57790;51.356;-2.906;2023-03-19T05:50:22;101741.97;;;9.85;100.00
70370;BME280;57790;51.356;-2.906;2023-03-19T05:53:23;101748.63;;;9.79;100.00
70370;BME280;57790;51.356;-2.906;2023-03-19T05:56:23;101762.53;;;9.72;100.00
70370;BME280;57790;51.356;-2.906;2023-03-19T05:59:23;101771.63;;;9.79;100.00
70370;BME280;57790;51.356;-2.906;2023-03-19T06:02:24;101767.44;;;9.76;100.00
70370;BME280;57790;51.356;-2.906;2023-03-19T06:05:24;101766.59;;;9.76;100.00
70370;BME280;57790;51.356;-2.906;2023-03-19T06:08:25;101768.66;;;9.72;100.00
70370;BME280;57790;51.356;-2.906;2023-03-19T06:11:26;101766.84;;;9.73;100.00
70370;BME280;57790;51.356;-2.906;2023-03-19T06:14:26;101767.38;;;9.67;100.00
70370;BME280;57790;51.356;-2.906;2023-03-19T06:17:26;101770.16;;;9.65;100.00
70370;BME280;57790;51.356;-2.906;2023-03-19T06:20:27;101778.94;;;9.66;100.00
70370;BME280;57790;51.356;-2.906;2023-03-19T06:23:27;101777.38;;;9.63;100.00
70370;BME280;57790;51.356;-2.906;2023-03-19T06:26:28;101787.84;;;9.65;100.00
70370;BME280;57790;51.356;-2.906;2023-03-19T06:29:28;101794.38;;;9.61;100.00
70370;BME280;57790;51.356;-2.906;2023-03-19T06:32:29;101809.41;;;9.60;100.00
70370;BME280;57790;51.356;-2.906;2023-03-19T06:35:29;101814.84;;;9.59;100.00
70370;BME280;57790;51.356;-2.906;2023-03-19T06:38:29;101803.78;;;9.53;100.00
70370;BME280;57790;51.356;-2.906;2023-03-19T06:41:30;101797.91;;;9.50;100.00
70370;BME280;57790;51.356;-2.906;2023-03-19T06:44:31;101809.88;;;9.44;100.00
70370;BME280;57790;51.356;-2.906;2023-03-19T06:47:31;101806.25;;;9.45;100.00
70370;BME280;57790;51.356;-2.906;2023-03-19T06:50:31;101815.16;;;9.44;100.00
70370;BME280;57790;51.356;-2.906;2023-03-19T06:53:32;101810.84;;;9.43;100.00
70370;BME280;57790;51.356;-2.906;2023-03-19T06:56:33;101812.53;;;9.44;100.00
70370;BME280;57790;51.356;-2.906;2023-03-19T06:59:33;101810.25;;;9.40;100.00
70370;BME280;57790;51.356;-2.906;2023-03-19T07:02:33;101825.88;;;9.43;100.00
70370;BME280;57790;51.356;-2.906;2023-03-19T07:05:34;101831.31;;;9.41;100.00
70370;BME280;57790;51.356;-2.906;2023-03-19T07:08:35;101826.84;;;9.42;100.00
70370;BME280;57790;51.356;-2.906;2023-03-19T07:11:35;101839.13;;;9.43;100.00
70370;BME280;57790;51.356;-2.906;2023-03-19T07:14:36;101835.63;;;9.42;100.00
70370;BME280;57790;51.356;-2.906;2023-03-19T07:17:36;101833.13;;;9.41;100.00
70370;BME280;57790;51.356;-2.906;2023-03-19T07:20:37;101826.25;;;9.38;100.00
70370;BME280;57790;51.356;-2.906;2023-03-19T07:23:37;101826.25;;;9.38;100.00
70370;BME280;57790;51.356;-2.906;2023-03-19T07:26:37;101828.31;;;9.35;100.00
70370;BME280;57790;51.356;-2.906;2023-03-19T07:29:38;101823.03;;;9.35;100.00
70370;BME280;57790;51.356;-2.906;2023-03-19T07:32:38;101830.97;;;9.35;100.00
70370;BME280;57790;51.356;-2.906;2023-03-19T07:35:39;101836.84;;;9.38;100.00
70370;BME280;57790;51.356;-2.906;2023-03-19T07:38:39;101839.25;;;9.41;100.00
70370;BME280;57790;51.356;-2.906;2023-03-19T07:41:40;101839.34;;;9.40;100.00
70370;BME280;57790;51.356;-2.906;2023-03-19T07:44:40;101839.25;;;9.41;100.00
70370;BME280;57790;51.356;-2.906;2023-03-19T07:47:41;101847.91;;;9.43;100.00
70370;BME280;57790;51.356;-2.906;2023-03-19T07:50:41;101848.72;;;9.44;100.00
70370;BME280;57790;51.356;-2.906;2023-03-19T07:53:42;101853.91;;;9.45;100.00
70370;BME280;57790;51.356;-2.906;2023-03-19T07:56:42;101864.22;;;9.48;100.00
70370;BME280;57790;51.356;-2.906;2023-03-19T07:59:43;101858.22;;;9.46;100.00
70370;BME280;57790;51.356;-2.906;2023-03-19T08:02:43;101860.59;;;9.49;100.00
70370;BME280;57790;51.356;-2.906;2023-03-19T08:05:44;101869.13;;;9.53;100.00
70370;BME280;57790;51.356;-2.906;2023-03-19T08:08:46;101869.88;;;9.55;100.00
70370;BME280;57790;51.356;-2.906;2023-03-19T08:11:47;101870.81;;;9.54;100.00
70370;BME280;57790;51.356;-2.906;2023-03-19T08:14:47;101871.63;;;9.54;100.00
70370;BME280;57790;51.356;-2.906;2023-03-19T08:17:47;101876.72;;;9.58;100.00
70370;BME280;57790;51.356;-2.906;2023-03-19T08:20:48;101878.38;;;9.59;100.00
70370;BME280;57790;51.356;-2.906;2023-03-19T08:23:49;101886.91;;;9.62;100.00
70370;BME280;57790;51.356;-2.906;2023-03-19T08:26:50;101895.56;;;9.64;100.00
70370;BME280;57790;51.356;-2.906;2023-03-19T08:29:50;101890.25;;;9.64;100.00
70370;BME280;57790;51.356;-2.906;2023-03-19T08:32:51;101897.09;;;9.67;100.00
70370;BME280;57790;51.356;-2.906;2023-03-19T08:35:51;101901.19;;;9.71;100.00
70370;BME280;57790;51.356;-2.906;2023-03-19T08:38:51;101903.84;;;9.71;100.00
70370;BME280;57790;51.356;-2.906;2023-03-19T08:41:53;101909.59;;;9.76;100.00
70370;BME280;57790;51.356;-2.906;2023-03-19T08:44:54;101917.25;;;9.79;100.00
70370;BME280;57790;51.356;-2.906;2023-03-19T08:47:55;101920.50;;;9.82;100.00
70370;BME280;57790;51.356;-2.906;2023-03-19T08:51:01;101922.91;;;9.86;100.00
70370;BME280;57790;51.356;-2.906;2023-03-19T08:54:02;101920.13;;;9.87;100.00
70370;BME280;57790;51.356;-2.906;2023-03-19T08:57:02;101920.84;;;9.89;100.00
70370;BME280;57790;51.356;-2.906;2023-03-19T09:00:04;101933.94;;;9.91;100.00
70370;BME280;57790;51.356;-2.906;2023-03-19T09:03:05;101943.44;;;9.93;100.00
70370;BME280;57790;51.356;-2.906;2023-03-19T09:06:08;101937.75;;;9.98;100.00
70370;BME280;57790;51.356;-2.906;2023-03-19T09:09:09;101940.38;;;9.98;100.00
70370;BME280;57790;51.356;-2.906;2023-03-19T09:12:13;101943.78;;;10.00;100.00
70370;BME280;57790;51.356;-2.906;2023-03-19T09:15:14;101940.88;;;10.03;100.00
70370;BME280;57790;51.356;-2.906;2023-03-19T09:18:15;101950.50;;;10.04;100.00
70370;BME280;57790;51.356;-2.906;2023-03-19T09:21:16;101954.56;;;10.08;100.00
70370;BME280;57790;51.356;-2.906;2023-03-19T09:24:17;101951.50;;;10.12;100.00
70370;BME280;57790;51.356;-2.906;2023-03-19T09:27:18;101956.69;;;10.14;100.00
70370;BME280;57790;51.356;-2.906;2023-03-19T09:30:19;101963.28;;;10.20;100.00
70370;BME280;57790;51.356;-2.906;2023-03-19T09:33:20;101977.28;;;10.22;100.00
70370;BME280;57790;51.356;-2.906;2023-03-19T09:36:21;101979.09;;;10.21;100.00
70370;BME280;57790;51.356;-2.906;2023-03-19T09:39:21;101972.81;;;10.22;100.00
70370;BME280;57790;51.356;-2.906;2023-03-19T09:45:41;101976.63;;;10.29;100.00
70370;BME280;57790;51.356;-2.906;2023-03-19T09:48:57;101973.28;;;10.27;100.00
70370;BME280;57790;51.356;-2.906;2023-03-19T09:55:33;101982.38;;;10.34;100.00
70370;BME280;57790;51.356;-2.906;2023-03-19T09:58:35;101993.69;;;10.36;100.00
70370;BME280;57790;51.356;-2.906;2023-03-19T10:01:37;101988.13;;;10.39;100.00
70370;BME280;57790;51.356;-2.906;2023-03-19T10:04:42;101991.75;;;10.38;100.00
70370;BME280;57790;51.356;-2.906;2023-03-19T10:14:43;101983.84;;;10.48;100.00
70370;BME280;57790;51.356;-2.906;2023-03-19T10:18:17;101992.38;;;10.52;100.00
70370;BME280;57790;51.356;-2.906;2023-03-19T10:21:24;101997.41;;;10.55;100.00
70370;BME280;57790;51.356;-2.906;2023-03-19T10:24:34;101989.34;;;10.56;100.00
70370;BME280;57790;51.356;-2.906;2023-03-19T10:27:36;101992.84;;;10.57;100.00
70370;BME280;57790;51.356;-2.906;2023-03-19T10:30:37;101984.63;;;10.60;100.00
70370;BME280;57790;51.356;-2.906;2023-03-19T10:33:43;101982.41;;;10.65;100.00
70370;BME280;57790;51.356;-2.906;2023-03-19T10:36:45;101989.13;;;10.69;100.00
70370;BME280;57790;51.356;-2.906;2023-03-19T10:39:48;101984.66;;;10.69;100.00
70370;BME280;57790;51.356;-2.906;2023-03-19T10:46:02;102007.31;;;10.83;100.00
70370;BME280;57790;51.356;-2.906;2023-03-19T10:49:02;102001.03;;;10.84;100.00
70370;BME280;57790;51.356;-2.906;2023-03-19T10:52:04;102009.00;;;10.84;100.00
70370;BME280;57790;51.356;-2.906;2023-03-19T10:55:15;101999.69;;;10.90;100.00
70370;BME280;57790;51.356;-2.906;2023-03-19T10:58:20;101994.53;;;10.88;100.00
70370;BME280;57790;51.356;-2.906;2023-03-19T11:01:26;101989.66;;;10.93;100.00
70370;BME280;57790;51.356;-2.906;2023-03-19T11:04:27;102000.81;;;10.97;100.00
70370;BME280;57790;51.356;-2.906;2023-03-19T11:07:31;102013.00;;;10.99;100.00
70370;BME280;57790;51.356;-2.906;2023-03-19T11:10:33;102009.09;;;11.03;100.00
70370;BME280;57790;51.356;-2.906;2023-03-19T11:13:35;102005.75;;;11.01;100.00
70370;BME280;57790;51.356;-2.906;2023-03-19T11:17:01;102017.50;;;11.09;100.00
70370;BME280;57790;51.356;-2.906;2023-03-19T11:20:26;102016.53;;;11.10;100.00
70370;BME280;57790;51.356;-2.906;2023-03-19T11:23:29;102014.69;;;11.10;100.00
70370;BME280;57790;51.356;-2.906;2023-03-19T11:26:30;102023.97;;;11.16;100.00
70370;BME280;57790;51.356;-2.906;2023-03-19T11:29:35;102031.09;;;11.15;100.00
70370;BME280;57790;51.356;-2.906;2023-03-19T11:45:34;102020.78;;;11.31;100.00
70370;BME280;57790;51.356;-2.906;2023-03-19T11:55:40;102017.03;;;11.34;100.00
70370;BME280;57790;51.356;-2.906;2023-03-19T11:59:11;102001.38;;;11.41;100.00
70370;BME280;57790;51.356;-2.906;2023-03-19T12:05:33;102006.84;;;11.49;100.00
70370;BME280;57790;51.356;-2.906;2023-03-19T12:08:46;101990.22;;;11.56;100.00
70370;BME280;57790;51.356;-2.906;2023-03-19T12:11:54;101988.53;;;11.55;100.00
70370;BME280;57790;51.356;-2.906;2023-03-19T12:18:50;101995.53;;;11.56;100.00
70370;BME280;57790;51.356;-2.906;2023-03-19T12:25:34;102003.66;;;11.65;100.00
70370;BME280;57790;51.356;-2.906;2023-03-19T12:28:58;101995.00;;;11.62;100.00
70370;BME280;57790;51.356;-2.906;2023-03-19T12:35:39;102003.53;;;11.76;100.00
70370;BME280;57790;51.356;-2.906;2023-03-19T12:38:45;102007.47;;;11.72;100.00
70370;BME280;57790;51.356;-2.906;2023-03-19T12:41:48;102027.72;;;11.73;100.00
70370;BME280;57790;51.356;-2.906;2023-03-19T12:44:53;102016.81;;;11.76;100.00
70370;BME280;57790;51.356;-2.906;2023-03-19T12:48:01;102013.47;;;11.74;100.00
70370;BME280;57790;51.356;-2.906;2023-03-19T12:51:08;102048.69;;;11.76;100.00
70370;BME280;57790;51.356;-2.906;2023-03-19T12:57:28;102010.28;;;11.80;100.00
70370;BME280;57790;51.356;-2.906;2023-03-19T13:00:35;102034.88;;;11.82;100.00
70370;BME280;57790;51.356;-2.906;2023-03-19T13:07:07;102028.31;;;11.86;100.00
70370;BME280;57790;51.356;-2.906;2023-03-19T13:10:18;102035.88;;;11.90;100.00
70370;BME280;57790;51.356;-2.906;2023-03-19T13:17:10;102028.03;;;11.99;100.00
70370;BME280;57790;51.356;-2.906;2023-03-19T13:23:30;102023.16;;;12.04;100.00
70370;BME280;57790;51.356;-2.906;2023-03-19T13:26:32;102009.03;;;12.03;100.00
70370;BME280;57790;51.356;-2.906;2023-03-19T13:29:35;102013.22;;;12.06;100.00
70370;BME280;57790;51.356;-2.906;2023-03-19T13:33:20;102001.88;;;12.04;100.00
70370;BME280;57790;51.356;-2.906;2023-03-19T13:36:13;102007.91;;;12.06;100.00
70370;BME280;57790;51.356;-2.906;2023-03-19T13:39:18;102012.94;;;12.09;100.00
70370;BME280;57790;51.356;-2.906;2023-03-19T13:45:36;101990.13;;;12.16;100.00
70370;BME280;57790;51.356;-2.906;2023-03-19T13:51:49;101994.44;;;12.27;100.00
70370;BME280;57790;51.356;-2.906;2023-03-19T13:54:53;101999.75;;;12.27;100.00
70370;BME280;57790;51.356;-2.906;2023-03-19T14:04:31;101999.19;;;12.33;100.00
70370;BME280;57790;51.356;-2.906;2023-03-19T14:07:37;101999.44;;;12.39;100.00
70370;BME280;57790;51.356;-2.906;2023-03-19T14:10:46;101986.84;;;12.41;100.00
70370;BME280;57790;51.356;-2.906;2023-03-19T14:13:50;101998.63;;;12.39;100.00
70370;BME280;57790;51.356;-2.906;2023-03-19T14:16:52;101985.16;;;12.40;100.00
70370;BME280;57790;51.356;-2.906;2023-03-19T14:19:53;101994.81;;;12.41;100.00
70370;BME280;57790;51.356;-2.906;2023-03-19T14:29:15;101985.44;;;12.47;100.00
70370;BME280;57790;51.356;-2.906;2023-03-19T14:32:18;101992.44;;;12.48;100.00
70370;BME280;57790;51.356;-2.906;2023-03-19T14:35:23;101987.13;;;12.48;100.00
70370;BME280;57790;51.356;-2.906;2023-03-19T14:38:36;101994.13;;;12.49;100.00
70370;BME280;57790;51.356;-2.906;2023-03-19T14:41:42;101975.47;;;12.59;100.00
70370;BME280;57790;51.356;-2.906;2023-03-19T14:51:35;101997.47;;;12.61;100.00
70370;BME280;57790;51.356;-2.906;2023-03-19T14:55:20;101992.78;;;12.72;100.00
70370;BME280;57790;51.356;-2.906;2023-03-19T14:58:21;101984.78;;;12.72;100.00
70370;BME280;57790;51.356;-2.906;2023-03-19T15:01:25;101989.28;;;12.72;100.00
70370;BME280;57790;51.356;-2.906;2023-03-19T15:04:26;101990.00;;;12.74;100.00
70370;BME280;57790;51.356;-2.906;2023-03-19T15:07:33;101985.09;;;12.69;100.00
70370;BME280;57790;51.356;-2.906;2023-03-19T15:10:50;101996.56;;;12.70;100.00
70370;BME280;57790;51.356;-2.906;2023-03-19T15:14:11;101974.41;;;12.79;100.00
70370;BME280;57790;51.356;-2.906;2023-03-19T15:20:22;101987.88;;;12.77;100.00
70370;BME280;57790;51.356;-2.906;2023-03-19T15:23:27;101993.59;;;12.82;100.00
70370;BME280;57790;51.356;-2.906;2023-03-19T15:26:30;101999.88;;;12.81;100.00
70370;BME280;57790;51.356;-2.906;2023-03-19T15:29:31;102004.09;;;12.84;100.00
70370;BME280;57790;51.356;-2.906;2023-03-19T15:32:41;101998.19;;;12.90;100.00
70370;BME280;57790;51.356;-2.906;2023-03-19T15:35:42;102001.84;;;12.89;100.00
70370;BME280;57790;51.356;-2.906;2023-03-19T15:41:55;102004.50;;;12.89;100.00
70370;BME280;57790;51.356;-2.906;2023-03-19T15:45:07;101998.72;;;12.94;100.00
70370;BME280;57790;51.356;-2.906;2023-03-19T15:48:34;102011.19;;;12.93;100.00
70370;BME280;57790;51.356;-2.906;2023-03-19T15:51:38;102015.78;;;13.01;100.00
70370;BME280;57790;51.356;-2.906;2023-03-19T15:54:42;101999.41;;;12.96;100.00
70370;BME280;57790;51.356;-2.906;2023-03-19T15:57:43;101998.72;;;12.94;100.00
70370;BME280;57790;51.356;-2.906;2023-03-19T16:00:44;102005.13;;;13.01;100.00
70370;BME280;57790;51.356;-2.906;2023-03-19T16:03:49;102009.06;;;12.97;100.00
70370;BME280;57790;51.356;-2.906;2023-03-19T16:06:51;102014.81;;;13.02;100.00
70370;BME280;57790;51.356;-2.906;2023-03-19T16:09:52;102015.66;;;13.02;100.00
70370;BME280;57790;51.356;-2.906;2023-03-19T16:12:53;102017.47;;;13.02;100.00
70370;BME280;57790;51.356;-2.906;2023-03-19T16:19:35;102020.84;;;13.04;100.00
70370;BME280;57790;51.356;-2.906;2023-03-19T16:22:36;102022.50;;;13.05;100.00
70370;BME280;57790;51.356;-2.906;2023-03-19T16:25:37;102025.16;;;13.05;100.00
70370;BME280;57790;51.356;-2.906;2023-03-19T16:28:46;102024.88;;;13.08;100.00
70370;BME280;57790;51.356;-2.906;2023-03-19T16:31:49;102020.22;;;13.10;100.00
70370;BME280;57790;51.356;-2.906;2023-03-19T16:34:56;102023.56;;;13.12;100.00
70370;BME280;57790;51.356;-2.906;2023-03-19T16:38:13;102026.94;;;13.14;100.00
70370;BME280;57790;51.356;-2.906;2023-03-19T16:41:25;102027.91;;;13.13;100.00
70370;BME280;57790;51.356;-2.906;2023-03-19T16:44:28;102033.94;;;13.15;100.00
70370;BME280;57790;51.356;-2.906;2023-03-19T16:47:28;102033.09;;;13.15;100.00
70370;BME280;57790;51.356;-2.906;2023-03-19T16:50:39;102034.75;;;13.16;100.00
70370;BME280;57790;51.356;-2.906;2023-03-19T16:53:40;102033.25;;;13.13;100.00
70370;BME280;57790;51.356;-2.906;2023-03-19T16:56:41;102027.22;;;13.11;100.00
70370;BME280;57790;51.356;-2.906;2023-03-19T16:59:41;102028.50;;;13.07;100.00
70370;BME280;57790;51.356;-2.906;2023-03-19T17:02:42;102035.81;;;13.05;100.00
70370;BME280;57790;51.356;-2.906;2023-03-19T17:05:44;102028.66;;;13.05;100.00
70370;BME280;57790;51.356;-2.906;2023-03-19T17:08:44;102041.13;;;13.05;100.00
70370;BME280;57790;51.356;-2.906;2023-03-19T17:11:45;102032.31;;;13.04;100.00
70370;BME280;57790;51.356;-2.906;2023-03-19T17:14:48;102038.06;;;13.00;100.00
70370;BME280;57790;51.356;-2.906;2023-03-19T17:17:51;102053.03;;;13.01;100.00
70370;BME280;57790;51.356;-2.906;2023-03-19T17:20:57;102042.28;;;13.02;100.00
70370;BME280;57790;51.356;-2.906;2023-03-19T17:24:32;102037.22;;;12.99;100.00